createdAt,value
2022-08-31T00:00:03.070Z,5.60
2022-08-31T00:01:03.057Z,5.60
2022-08-31T00:02:02.765Z,6.00
2022-08-31T00:03:02.683Z,6.00
2022-08-31T00:04:03.504Z,6.00
2022-08-31T00:05:03.372Z,6.00
2022-08-31T00:06:03.195Z,6.00
2022-08-31T00:07:02.141Z,6.10
2022-08-31T00:08:02.271Z,6.10
2022-08-31T00:09:02.230Z,6.10
2022-08-31T00:10:02.278Z,6.10
2022-08-31T00:11:02.408Z,6.10
2022-08-31T00:12:02.282Z,5.10
2022-08-31T00:13:02.876Z,5.10
2022-08-31T00:14:02.658Z,5.10
2022-08-31T00:15:02.471Z,5.10
2022-08-31T00:16:02.402Z,5.10
2022-08-31T00:17:02.327Z,5.00
2022-08-31T00:18:02.926Z,5.00
2022-08-31T00:19:02.579Z,5.00
2022-08-31T00:20:02.334Z,5.00
2022-08-31T00:21:02.432Z,5.00
2022-08-31T00:22:02.304Z,6.80
2022-08-31T00:23:02.209Z,6.80
2022-08-31T00:24:02.608Z,6.80
2022-08-31T00:25:02.253Z,6.80
2022-08-31T00:26:02.127Z,6.80
2022-08-31T00:27:02.775Z,6.50
2022-08-31T00:28:02.824Z,6.50
2022-08-31T00:29:02.920Z,6.50
2022-08-31T00:30:02.700Z,6.50
2022-08-31T00:31:02.651Z,6.50
2022-08-31T00:32:02.731Z,7.10
2022-08-31T00:33:02.462Z,7.10
2022-08-31T00:34:02.379Z,7.10
2022-08-31T00:35:02.344Z,7.10
2022-08-31T00:36:02.161Z,7.10
2022-08-31T00:37:02.848Z,7.30
2022-08-31T00:38:02.685Z,7.30
2022-08-31T00:39:02.644Z,7.30
2022-08-31T00:40:03.279Z,7.30
2022-08-31T00:41:02.793Z,7.30
2022-08-31T00:42:02.499Z,5.70
2022-08-31T00:43:02.485Z,5.70
2022-08-31T00:44:02.434Z,5.70
2022-08-31T00:45:02.299Z,5.70
2022-08-31T00:46:02.967Z,5.70
2022-08-31T00:47:02.924Z,7.80
2022-08-31T00:48:02.941Z,7.80
2022-08-31T00:49:02.903Z,7.80
2022-08-31T00:50:02.776Z,7.80
2022-08-31T00:51:02.736Z,7.80
2022-08-31T00:52:03.390Z,34.90
2022-08-31T00:53:03.395Z,34.90
2022-08-31T00:54:03.213Z,34.90
2022-08-31T00:55:03.148Z,34.90
2022-08-31T00:56:03.669Z,34.90
2022-08-31T00:57:02.617Z,16.60
2022-08-31T00:58:02.526Z,16.60
2022-08-31T00:59:02.378Z,16.60
2022-08-31T01:00:02.342Z,16.60
2022-08-31T01:01:02.974Z,16.60
2022-08-31T01:02:03.276Z,11.70
2022-08-31T01:03:03.186Z,11.70
2022-08-31T01:04:03.165Z,11.70
2022-08-31T01:05:03.642Z,11.70
2022-08-31T01:06:03.194Z,11.70
2022-08-31T01:07:02.745Z,19.40
2022-08-31T01:08:02.849Z,19.40
2022-08-31T01:09:02.827Z,19.40
2022-08-31T01:10:02.795Z,19.40
2022-08-31T01:11:02.619Z,19.40
2022-08-31T01:12:03.200Z,11.50
2022-08-31T01:13:02.857Z,11.50
2022-08-31T01:14:03.344Z,11.50
2022-08-31T01:15:03.138Z,11.50
2022-08-31T01:16:03.001Z,11.50
2022-08-31T01:17:02.531Z,8.90
2022-08-31T01:18:02.273Z,8.90
2022-08-31T01:19:02.767Z,8.90
2022-08-31T01:20:02.360Z,8.90
2022-08-31T01:21:02.430Z,8.90
2022-08-31T01:22:03.244Z,11.30
2022-08-31T01:23:03.245Z,11.30
2022-08-31T01:24:02.855Z,11.30
2022-08-31T01:25:02.622Z,11.30
2022-08-31T01:26:03.184Z,11.30
2022-08-31T01:27:03.548Z,8.00
2022-08-31T01:28:03.498Z,8.00
2022-08-31T01:29:03.262Z,8.00
2022-08-31T01:30:03.223Z,8.00
2022-08-31T01:31:03.768Z,8.00
2022-08-31T01:32:03.394Z,10.70
2022-08-31T01:33:03.107Z,10.70
2022-08-31T01:34:02.942Z,10.70
2022-08-31T01:35:03.245Z,10.70
2022-08-31T01:36:03.126Z,10.70
2022-08-31T01:37:03.673Z,12.60
2022-08-31T01:38:03.559Z,12.60
2022-08-31T01:39:03.834Z,12.60
2022-08-31T01:40:03.571Z,12.60
2022-08-31T01:41:03.239Z,12.60
2022-08-31T01:42:02.935Z,8.70
2022-08-31T01:43:03.045Z,8.70
2022-08-31T01:44:02.723Z,8.70
2022-08-31T01:45:02.648Z,8.70
2022-08-31T01:46:02.780Z,8.70
2022-08-31T01:47:03.230Z,10.90
2022-08-31T01:48:03.322Z,10.90
2022-08-31T01:49:03.280Z,10.90
2022-08-31T01:50:03.053Z,10.90
2022-08-31T01:51:02.925Z,10.90
2022-08-31T01:52:03.148Z,10.20
2022-08-31T01:53:03.154Z,10.20
2022-08-31T01:54:03.550Z,10.20
2022-08-31T01:55:03.397Z,10.20
2022-08-31T01:56:03.244Z,10.20
2022-08-31T01:57:03.775Z,11.50
2022-08-31T01:58:03.686Z,11.50
2022-08-31T01:59:07.696Z,11.50
2022-08-31T02:00:03.595Z,11.50
2022-08-31T02:01:03.553Z,11.50
2022-08-31T02:02:03.278Z,12.00
2022-08-31T02:03:02.750Z,12.00
2022-08-31T02:04:02.645Z,12.00
2022-08-31T02:05:03.215Z,12.00
2022-08-31T02:06:02.868Z,12.00
2022-08-31T02:07:03.442Z,9.60
2022-08-31T02:08:03.339Z,9.60
2022-08-31T02:09:03.290Z,9.60
2022-08-31T02:10:03.247Z,9.60
2022-08-31T02:11:03.172Z,9.60
2022-08-31T02:12:03.678Z,12.30
2022-08-31T02:13:03.586Z,12.30
2022-08-31T02:14:03.115Z,12.30
2022-08-31T02:15:03.350Z,12.30
2022-08-31T02:16:03.533Z,12.30
2022-08-31T02:17:03.048Z,11.10
2022-08-31T02:18:02.614Z,11.10
2022-08-31T02:19:03.030Z,11.10
2022-08-31T02:20:02.991Z,11.10
2022-08-31T02:21:02.907Z,11.10
2022-08-31T02:22:03.537Z,9.60
2022-08-31T02:23:03.216Z,9.60
2022-08-31T02:24:03.211Z,9.60
2022-08-31T02:25:02.892Z,9.60
2022-08-31T02:26:03.257Z,9.60
2022-08-31T02:27:03.837Z,9.00
2022-08-31T02:28:04.087Z,9.00
2022-08-31T02:29:03.487Z,9.00
2022-08-31T02:30:04.107Z,9.00
2022-08-31T02:31:03.831Z,9.00
2022-08-31T02:32:02.866Z,10.70
2022-08-31T02:33:03.109Z,10.70
2022-08-31T02:34:03.504Z,10.70
2022-08-31T02:35:03.535Z,10.70
2022-08-31T02:36:03.216Z,10.70
2022-08-31T02:37:03.142Z,10.40
2022-08-31T02:38:03.631Z,10.40
2022-08-31T02:39:03.530Z,10.40
2022-08-31T02:40:03.399Z,10.40
2022-08-31T02:41:03.189Z,10.40
2022-08-31T02:42:03.385Z,8.80
2022-08-31T02:43:03.002Z,8.80
2022-08-31T02:44:03.199Z,8.80
2022-08-31T02:45:03.122Z,8.80
2022-08-31T02:46:03.041Z,8.80
2022-08-31T02:47:03.506Z,10.10
2022-08-31T02:48:02.839Z,10.10
2022-08-31T02:49:03.115Z,10.10
2022-08-31T02:50:02.932Z,10.10
2022-08-31T02:51:03.314Z,10.10
2022-08-31T02:52:03.206Z,10.20
2022-08-31T02:53:03.228Z,10.20
2022-08-31T02:54:03.782Z,10.20
2022-08-31T02:55:03.507Z,10.20
2022-08-31T02:56:03.407Z,10.20
2022-08-31T02:57:03.340Z,10.00
2022-08-31T02:58:03.272Z,10.00
2022-08-31T02:59:03.905Z,10.00
2022-08-31T03:00:03.816Z,10.00
2022-08-31T03:01:03.359Z,10.00
2022-08-31T03:02:02.340Z,9.90
2022-08-31T03:03:01.992Z,9.90
2022-08-31T03:04:01.977Z,9.90
2022-08-31T03:05:02.101Z,9.90
2022-08-31T03:06:01.960Z,9.90
2022-08-31T03:07:02.413Z,11.40
2022-08-31T03:08:02.370Z,11.40
2022-08-31T03:09:02.639Z,11.40
2022-08-31T03:10:02.969Z,11.40
2022-08-31T03:11:02.677Z,11.40
2022-08-31T03:12:03.032Z,13.20
2022-08-31T03:13:02.865Z,13.20
2022-08-31T03:14:02.742Z,13.20
2022-08-31T03:15:02.682Z,13.20
2022-08-31T03:16:02.592Z,13.20
2022-08-31T03:17:02.779Z,10.50
2022-08-31T03:18:03.239Z,10.50
2022-08-31T03:19:02.463Z,10.50
2022-08-31T03:20:02.665Z,10.50
2022-08-31T03:21:02.973Z,10.50
2022-08-31T03:22:03.028Z,14.00
2022-08-31T03:23:03.098Z,14.00
2022-08-31T03:24:02.890Z,14.00
2022-08-31T03:25:02.822Z,14.00
2022-08-31T03:26:02.703Z,14.00
2022-08-31T03:27:02.268Z,10.30
2022-08-31T03:28:02.505Z,10.30
2022-08-31T03:29:02.452Z,10.30
2022-08-31T03:30:02.065Z,10.30
2022-08-31T03:31:02.622Z,10.30
2022-08-31T03:32:02.328Z,10.50
2022-08-31T03:33:02.837Z,10.50
2022-08-31T03:34:02.338Z,10.50
2022-08-31T03:35:02.279Z,10.50
2022-08-31T03:36:02.259Z,10.50
2022-08-31T03:37:02.648Z,10.70
2022-08-31T03:38:03.254Z,10.70
2022-08-31T03:39:02.646Z,10.70
2022-08-31T03:40:02.859Z,10.70
2022-08-31T03:41:02.721Z,10.70
2022-08-31T03:42:02.435Z,9.10
2022-08-31T03:43:02.262Z,9.10
2022-08-31T03:44:02.678Z,9.10
2022-08-31T03:45:02.821Z,9.10
2022-08-31T03:46:02.563Z,9.10
2022-08-31T03:47:02.779Z,8.50
2022-08-31T03:48:03.279Z,8.50
2022-08-31T03:49:02.825Z,8.50
2022-08-31T03:50:02.843Z,8.50
2022-08-31T03:51:03.022Z,8.50
2022-08-31T03:52:02.781Z,10.20
2022-08-31T03:53:02.714Z,10.20
2022-08-31T03:54:02.563Z,10.20
2022-08-31T03:55:02.510Z,10.20
2022-08-31T03:56:02.611Z,10.20
2022-08-31T03:57:03.110Z,8.80
2022-08-31T03:58:03.118Z,8.80
2022-08-31T03:59:03.219Z,8.80
2022-08-31T04:00:03.176Z,8.80
2022-08-31T04:01:03.211Z,8.80
2022-08-31T04:02:02.940Z,9.40
2022-08-31T04:03:02.680Z,9.40
2022-08-31T04:04:02.553Z,9.40
2022-08-31T04:05:02.486Z,9.40
2022-08-31T04:06:02.746Z,9.40
2022-08-31T04:07:02.416Z,9.20
2022-08-31T04:08:02.251Z,9.20
2022-08-31T04:09:02.072Z,9.20
2022-08-31T04:10:01.975Z,9.20
2022-08-31T04:11:02.680Z,9.20
2022-08-31T04:12:02.983Z,8.10
2022-08-31T04:13:02.870Z,8.10
2022-08-31T04:14:02.732Z,8.10
2022-08-31T04:15:02.707Z,8.10
2022-08-31T04:16:02.604Z,8.10
2022-08-31T04:17:03.138Z,9.90
2022-08-31T04:18:03.243Z,9.90
2022-08-31T04:19:02.800Z,9.90
2022-08-31T04:20:02.761Z,9.90
2022-08-31T04:21:03.069Z,9.90
2022-08-31T04:22:02.346Z,7.80
2022-08-31T04:23:02.319Z,7.80
2022-08-31T04:24:02.593Z,7.80
2022-08-31T04:25:02.475Z,7.80
2022-08-31T04:26:02.293Z,7.80
2022-08-31T04:27:02.902Z,8.10
2022-08-31T04:28:02.686Z,8.10
2022-08-31T04:29:02.464Z,8.10
2022-08-31T04:30:02.930Z,8.10
2022-08-31T04:31:02.726Z,8.10
2022-08-31T04:32:03.241Z,9.40
2022-08-31T04:33:02.956Z,9.40
2022-08-31T04:34:03.054Z,9.40
2022-08-31T04:35:02.904Z,9.40
2022-08-31T04:36:03.385Z,9.40
2022-08-31T04:37:02.302Z,11.40
2022-08-31T04:38:02.340Z,11.40
2022-08-31T04:39:02.271Z,11.40
2022-08-31T04:40:02.175Z,11.40
2022-08-31T04:41:02.380Z,11.40
2022-08-31T04:42:02.564Z,8.50
2022-08-31T04:43:02.497Z,8.50
2022-08-31T04:44:02.449Z,8.50
2022-08-31T04:45:03.040Z,8.50
2022-08-31T04:46:02.720Z,8.50
2022-08-31T04:47:03.329Z,8.30
2022-08-31T04:48:03.357Z,8.30
2022-08-31T04:49:03.181Z,8.30
2022-08-31T04:50:03.010Z,8.30
2022-08-31T04:51:03.555Z,8.30
2022-08-31T04:52:03.111Z,9.50
2022-08-31T04:53:03.885Z,9.50
2022-08-31T04:54:02.530Z,9.50
2022-08-31T04:55:02.484Z,9.50
2022-08-31T04:56:03.022Z,9.50
2022-08-31T04:57:03.596Z,9.90
2022-08-31T04:58:03.250Z,9.90
2022-08-31T04:59:03.048Z,9.90
2022-08-31T05:00:03.560Z,9.90
2022-08-31T05:01:03.203Z,9.90
2022-08-31T05:02:02.478Z,7.30
2022-08-31T05:03:02.594Z,7.30
2022-08-31T05:04:02.691Z,7.30
2022-08-31T05:05:02.423Z,7.30
2022-08-31T05:06:02.683Z,7.30
2022-08-31T05:07:02.545Z,7.00
2022-08-31T05:08:03.146Z,7.00
2022-08-31T05:09:02.743Z,7.00
2022-08-31T05:10:02.596Z,7.00
2022-08-31T05:11:03.117Z,7.00
2022-08-31T05:12:02.740Z,8.40
2022-08-31T05:13:03.270Z,8.40
2022-08-31T05:14:03.111Z,8.40
2022-08-31T05:15:03.111Z,8.40
2022-08-31T05:16:02.966Z,8.40
2022-08-31T05:17:02.249Z,9.70
2022-08-31T05:18:02.117Z,9.70
2022-08-31T05:19:01.940Z,9.70
2022-08-31T05:20:02.519Z,9.70
2022-08-31T05:21:02.370Z,9.70
2022-08-31T05:22:02.406Z,8.50
2022-08-31T05:23:02.304Z,8.50
2022-08-31T05:24:02.604Z,8.50
2022-08-31T05:25:02.843Z,8.50
2022-08-31T05:26:02.382Z,8.50
2022-08-31T05:27:02.503Z,9.00
2022-08-31T05:28:02.808Z,9.00
2022-08-31T05:29:02.819Z,9.00
2022-08-31T05:30:02.974Z,9.00
2022-08-31T05:31:03.125Z,9.00
2022-08-31T05:32:02.974Z,8.30
2022-08-31T05:33:02.853Z,8.30
2022-08-31T05:34:03.322Z,8.30
2022-08-31T05:35:02.982Z,8.30
2022-08-31T05:36:02.949Z,8.30
2022-08-31T05:37:02.879Z,7.00
2022-08-31T05:38:03.436Z,7.00
2022-08-31T05:39:03.092Z,7.00
2022-08-31T05:40:03.463Z,7.00
2022-08-31T05:41:02.970Z,7.00
2022-08-31T05:42:02.635Z,9.70
2022-08-31T05:43:03.040Z,9.70
2022-08-31T05:44:02.970Z,9.70
2022-08-31T05:45:02.933Z,9.70
2022-08-31T05:46:07.946Z,9.70
2022-08-31T05:47:03.812Z,12.40
2022-08-31T05:48:02.852Z,12.40
2022-08-31T05:49:02.763Z,12.40
2022-08-31T05:50:02.759Z,12.40
2022-08-31T05:51:02.745Z,12.40
2022-08-31T05:52:02.486Z,8.60
2022-08-31T05:53:02.374Z,8.60
2022-08-31T05:54:02.287Z,8.60
2022-08-31T05:55:02.281Z,8.60
2022-08-31T05:56:02.910Z,8.60
2022-08-31T05:57:02.601Z,12.00
2022-08-31T05:58:02.552Z,12.00
2022-08-31T05:59:02.863Z,12.00
2022-08-31T06:00:02.585Z,12.00
2022-08-31T06:01:02.920Z,12.00
2022-08-31T06:02:02.355Z,7.70
2022-08-31T06:03:02.310Z,7.70
2022-08-31T06:04:02.237Z,7.70
2022-08-31T06:05:02.699Z,7.70
2022-08-31T06:06:02.458Z,7.70
2022-08-31T06:07:02.388Z,12.40
2022-08-31T06:08:02.260Z,12.40
2022-08-31T06:09:02.245Z,12.40
2022-08-31T06:10:02.632Z,12.40
2022-08-31T06:11:02.485Z,12.40
2022-08-31T06:12:02.770Z,8.20
2022-08-31T06:13:02.778Z,8.20
2022-08-31T06:14:02.483Z,8.20
2022-08-31T06:15:02.296Z,8.20
2022-08-31T06:16:02.298Z,8.20
2022-08-31T06:17:02.017Z,9.30
2022-08-31T06:18:02.006Z,9.30
2022-08-31T06:19:01.969Z,9.30
2022-08-31T06:20:01.875Z,9.30
2022-08-31T06:21:02.053Z,9.30
2022-08-31T06:22:02.559Z,9.40
2022-08-31T06:23:02.465Z,9.40
2022-08-31T06:24:02.530Z,9.40
2022-08-31T06:25:02.732Z,9.40
2022-08-31T06:26:02.698Z,9.40
2022-08-31T06:27:02.607Z,9.80
2022-08-31T06:28:02.516Z,9.80
2022-08-31T06:29:02.395Z,9.80
2022-08-31T06:30:02.486Z,9.80
2022-08-31T06:31:02.778Z,9.80
2022-08-31T06:32:02.709Z,7.50
2022-08-31T06:33:03.063Z,7.50
2022-08-31T06:34:02.861Z,7.50
2022-08-31T06:35:02.731Z,7.50
2022-08-31T06:36:02.848Z,7.50
2022-08-31T06:37:01.771Z,8.20
2022-08-31T06:38:01.714Z,8.20
2022-08-31T06:39:01.701Z,8.20
2022-08-31T06:40:01.941Z,8.20
2022-08-31T06:41:02.176Z,8.20
2022-08-31T06:42:02.521Z,9.50
2022-08-31T06:43:02.516Z,9.50
2022-08-31T06:44:02.771Z,9.50
2022-08-31T06:45:02.485Z,9.50
2022-08-31T06:46:02.521Z,9.50
2022-08-31T06:47:02.266Z,7.60
2022-08-31T06:48:02.366Z,7.60
2022-08-31T06:49:02.296Z,7.60
2022-08-31T06:50:02.189Z,7.60
2022-08-31T06:51:02.097Z,7.60
2022-08-31T06:52:02.870Z,8.50
2022-08-31T06:53:02.632Z,8.50
2022-08-31T06:54:21.386Z,8.50
2022-08-31T06:55:03.109Z,8.50
2022-08-31T06:56:03.051Z,8.50
2022-08-31T06:57:02.121Z,8.90
2022-08-31T06:58:01.924Z,8.90
2022-08-31T06:59:01.878Z,8.90
2022-08-31T07:00:02.114Z,8.90
2022-08-31T07:01:02.203Z,8.90
2022-08-31T07:02:02.954Z,8.80
2022-08-31T07:03:02.602Z,8.80
2022-08-31T07:04:02.674Z,8.80
2022-08-31T07:05:02.821Z,8.80
2022-08-31T07:06:02.718Z,8.80
2022-08-31T07:07:03.309Z,8.90
2022-08-31T07:08:02.863Z,8.90
2022-08-31T07:09:02.910Z,8.90
2022-08-31T07:10:02.906Z,8.90
2022-08-31T07:11:03.216Z,8.90
2022-08-31T07:12:02.870Z,9.80
2022-08-31T07:13:02.430Z,9.80
2022-08-31T07:14:02.568Z,9.80
2022-08-31T07:15:02.510Z,9.80
2022-08-31T07:16:02.499Z,9.80
2022-08-31T07:17:03.223Z,14.70
2022-08-31T07:18:04.397Z,14.70
2022-08-31T07:19:02.650Z,14.70
2022-08-31T07:20:03.162Z,14.70
2022-08-31T07:21:03.086Z,14.70
2022-08-31T07:22:02.807Z,11.00
2022-08-31T07:23:02.617Z,11.00
2022-08-31T07:24:02.523Z,11.00
2022-08-31T07:25:02.374Z,11.00
2022-08-31T07:26:02.638Z,11.00
2022-08-31T07:27:03.385Z,12.40
2022-08-31T07:28:03.293Z,12.40
2022-08-31T07:29:03.291Z,12.40
2022-08-31T07:30:03.157Z,12.40
2022-08-31T07:31:03.209Z,12.40
2022-08-31T07:32:02.884Z,8.90
2022-08-31T07:33:02.582Z,8.90
2022-08-31T07:34:02.562Z,8.90
2022-08-31T07:35:02.505Z,8.90
2022-08-31T07:36:02.362Z,8.90
2022-08-31T07:37:02.886Z,10.80
2022-08-31T07:38:03.333Z,10.80
2022-08-31T07:39:03.352Z,10.80
2022-08-31T07:40:07.107Z,10.80
2022-08-31T07:41:03.330Z,10.80
2022-08-31T07:42:02.579Z,11.20
2022-08-31T07:43:02.576Z,11.20
2022-08-31T07:44:02.618Z,11.20
2022-08-31T07:45:02.763Z,11.20
2022-08-31T07:46:02.907Z,11.20
2022-08-31T07:47:02.719Z,9.70
2022-08-31T07:48:03.195Z,9.70
2022-08-31T07:49:02.994Z,9.70
2022-08-31T07:50:02.709Z,9.70
2022-08-31T07:51:02.893Z,9.70
2022-08-31T07:52:02.863Z,10.90
2022-08-31T07:53:03.353Z,10.90
2022-08-31T07:54:03.358Z,10.90
2022-08-31T07:55:03.481Z,10.90
2022-08-31T07:56:03.295Z,10.90
2022-08-31T07:57:02.438Z,11.10
2022-08-31T07:58:02.336Z,11.10
2022-08-31T07:59:02.742Z,11.10
2022-08-31T08:00:02.797Z,11.10
2022-08-31T08:01:02.597Z,11.10
2022-08-31T08:02:02.786Z,8.70
2022-08-31T08:03:02.820Z,8.70
2022-08-31T08:04:02.781Z,8.70
2022-08-31T08:05:03.080Z,8.70
2022-08-31T08:06:02.523Z,8.70
2022-08-31T08:07:02.839Z,8.90
2022-08-31T08:08:02.986Z,8.90
2022-08-31T08:09:22.359Z,8.90
2022-08-31T08:10:02.698Z,8.90
2022-08-31T08:11:02.706Z,8.90
2022-08-31T08:12:01.734Z,9.90
2022-08-31T08:13:02.379Z,9.90
2022-08-31T08:14:05.246Z,9.90
2022-08-31T08:15:01.634Z,9.90
2022-08-31T08:16:01.680Z,9.90
2022-08-31T08:17:02.222Z,9.60
2022-08-31T08:18:02.426Z,9.60
2022-08-31T08:19:02.386Z,9.60
2022-08-31T08:20:02.366Z,9.60
2022-08-31T08:21:02.189Z,9.60
2022-08-31T08:22:02.320Z,9.20
2022-08-31T08:23:02.518Z,9.20
2022-08-31T08:24:02.453Z,9.20
2022-08-31T08:25:02.733Z,9.20
2022-08-31T08:26:02.208Z,9.20
2022-08-31T08:27:02.486Z,9.90
2022-08-31T08:28:17.092Z,9.90
2022-08-31T08:29:02.102Z,9.90
2022-08-31T08:30:02.067Z,9.90
2022-08-31T08:31:02.021Z,9.90
2022-08-31T08:32:02.591Z,8.70
2022-08-31T08:33:02.637Z,8.70
2022-08-31T08:34:02.579Z,8.70
2022-08-31T08:35:03.108Z,8.70
2022-08-31T08:36:03.043Z,8.70
2022-08-31T08:37:03.224Z,13.10
2022-08-31T08:38:07.555Z,13.10
2022-08-31T08:39:03.057Z,13.10
2022-08-31T08:40:03.295Z,13.10
2022-08-31T08:41:03.152Z,13.10
2022-08-31T08:42:02.161Z,11.30
2022-08-31T08:43:02.408Z,11.30
2022-08-31T08:44:02.371Z,11.30
2022-08-31T08:45:02.196Z,11.30
2022-08-31T08:46:15.174Z,11.30
2022-08-31T08:47:02.213Z,11.30
2022-08-31T08:48:02.435Z,11.30
2022-08-31T08:49:02.446Z,11.30
2022-08-31T08:50:02.012Z,11.30
2022-08-31T08:51:02.576Z,11.30
2022-08-31T08:52:02.856Z,12.40
2022-08-31T08:53:02.941Z,12.40
2022-08-31T08:54:02.985Z,12.40
2022-08-31T08:55:03.094Z,12.40
2022-08-31T08:56:23.235Z,12.40
2022-08-31T08:57:02.695Z,9.70
2022-08-31T08:58:02.426Z,9.70
2022-08-31T08:59:02.120Z,9.70
2022-08-31T09:00:02.459Z,9.70
2022-08-31T09:01:02.528Z,9.70
2022-08-31T09:02:02.675Z,12.60
2022-08-31T09:03:03.001Z,12.60
2022-08-31T09:04:02.682Z,12.60
2022-08-31T09:05:02.657Z,12.60
2022-08-31T09:06:02.960Z,12.60
2022-08-31T09:07:02.724Z,11.80
2022-08-31T09:08:02.687Z,11.80
2022-08-31T09:09:02.719Z,11.80
2022-08-31T09:10:02.684Z,11.80
2022-08-31T09:11:02.539Z,11.80
2022-08-31T09:12:03.747Z,10.70
2022-08-31T09:13:03.558Z,10.70
2022-08-31T09:14:03.475Z,10.70
2022-08-31T09:15:03.716Z,10.70
2022-08-31T09:16:03.818Z,10.70
2022-08-31T09:17:02.669Z,11.30
2022-08-31T09:18:02.654Z,11.30
2022-08-31T09:19:02.708Z,11.30
2022-08-31T09:20:02.645Z,11.30
2022-08-31T09:21:02.549Z,11.30
2022-08-31T09:22:03.302Z,8.20
2022-08-31T09:23:03.215Z,8.20
2022-08-31T09:24:03.613Z,8.20
2022-08-31T09:25:03.324Z,8.20
2022-08-31T09:26:08.028Z,8.20
2022-08-31T09:27:02.820Z,11.00
2022-08-31T09:28:02.900Z,11.00
2022-08-31T09:29:02.672Z,11.00
2022-08-31T09:30:02.650Z,11.00
2022-08-31T09:31:02.737Z,11.00
2022-08-31T09:32:06.319Z,13.80
2022-08-31T09:33:03.346Z,13.80
2022-08-31T09:34:03.242Z,13.80
2022-08-31T09:35:03.261Z,13.80
2022-08-31T09:36:03.234Z,13.80
2022-08-31T09:37:02.832Z,9.00
2022-08-31T09:38:02.789Z,9.00
2022-08-31T09:39:02.784Z,9.00
2022-08-31T09:40:07.226Z,9.00
2022-08-31T09:41:02.744Z,9.00
2022-08-31T09:42:03.242Z,10.80
2022-08-31T09:43:02.861Z,10.80
2022-08-31T09:44:03.275Z,10.80
2022-08-31T09:45:03.153Z,10.80
2022-08-31T09:46:03.120Z,10.80
2022-08-31T09:47:03.146Z,11.70
2022-08-31T09:48:03.133Z,11.70
2022-08-31T09:49:03.083Z,11.70
2022-08-31T09:50:03.140Z,11.70
2022-08-31T09:51:02.994Z,11.70
2022-08-31T09:52:03.667Z,9.70
2022-08-31T09:53:03.559Z,9.70
2022-08-31T09:54:03.356Z,9.70
2022-08-31T09:55:03.487Z,9.70
2022-08-31T09:56:03.361Z,9.70
2022-08-31T09:57:03.049Z,6.10
2022-08-31T09:58:03.157Z,6.10
2022-08-31T09:59:02.628Z,6.10
2022-08-31T10:00:03.195Z,6.10
2022-08-31T10:01:03.061Z,6.10
2022-08-31T10:02:06.040Z,8.70
2022-08-31T10:03:06.541Z,8.70
2022-08-31T10:04:03.319Z,8.70
2022-08-31T10:05:03.068Z,8.70
2022-08-31T10:06:03.031Z,8.70
2022-08-31T10:07:02.873Z,8.20
2022-08-31T10:08:02.925Z,8.20
2022-08-31T10:09:02.688Z,8.20
2022-08-31T10:10:02.913Z,8.20
2022-08-31T10:11:02.453Z,8.20
2022-08-31T10:12:03.072Z,14.50
2022-08-31T10:13:02.863Z,14.50
2022-08-31T10:14:02.934Z,14.50
2022-08-31T10:15:02.563Z,14.50
2022-08-31T10:16:02.631Z,14.50
2022-08-31T10:17:03.331Z,6.10
2022-08-31T10:18:03.338Z,6.10
2022-08-31T10:19:03.238Z,6.10
2022-08-31T10:20:03.056Z,6.10
2022-08-31T10:21:03.337Z,6.10
2022-08-31T10:22:02.748Z,7.90
2022-08-31T10:23:02.618Z,7.90
2022-08-31T10:24:02.222Z,7.90
2022-08-31T10:25:02.154Z,7.90
2022-08-31T10:26:02.220Z,7.90
2022-08-31T10:27:03.010Z,8.80
2022-08-31T10:28:02.822Z,8.80
2022-08-31T10:29:02.688Z,8.80
2022-08-31T10:30:02.710Z,8.80
2022-08-31T10:31:02.745Z,8.80
2022-08-31T10:32:03.468Z,9.30
2022-08-31T10:33:03.129Z,9.30
2022-08-31T10:34:03.197Z,9.30
2022-08-31T10:35:03.112Z,9.30
2022-08-31T10:36:03.212Z,9.30
2022-08-31T10:37:02.302Z,6.10
2022-08-31T10:38:02.920Z,6.10
2022-08-31T10:39:02.666Z,6.10
2022-08-31T10:40:02.723Z,6.10
2022-08-31T10:41:02.951Z,6.10
2022-08-31T10:42:02.492Z,6.60
2022-08-31T10:43:02.611Z,6.60
2022-08-31T10:44:02.674Z,6.60
2022-08-31T10:45:02.728Z,6.60
2022-08-31T10:46:02.732Z,6.60
2022-08-31T10:47:02.666Z,8.80
2022-08-31T10:48:02.923Z,8.80
2022-08-31T10:49:02.819Z,8.80
2022-08-31T10:50:02.921Z,8.80
2022-08-31T10:51:03.028Z,8.80
2022-08-31T10:52:03.369Z,6.50
2022-08-31T10:53:02.970Z,6.50
2022-08-31T10:54:02.771Z,6.50
2022-08-31T10:55:03.029Z,6.50
2022-08-31T10:56:02.845Z,6.50
2022-08-31T10:57:02.498Z,8.10
2022-08-31T10:58:02.856Z,8.10
2022-08-31T10:59:02.771Z,8.10
2022-08-31T11:00:02.980Z,8.10
2022-08-31T11:01:03.039Z,8.10
2022-08-31T11:02:03.092Z,7.60
2022-08-31T11:03:02.919Z,7.60
2022-08-31T11:04:02.515Z,7.60
2022-08-31T11:05:02.600Z,7.60
2022-08-31T11:06:02.602Z,7.60
2022-08-31T11:07:02.905Z,7.00
2022-08-31T11:08:02.701Z,7.00
2022-08-31T11:09:02.941Z,7.00
2022-08-31T11:10:02.631Z,7.00
2022-08-31T11:11:02.649Z,7.00
2022-08-31T11:12:02.545Z,6.80
2022-08-31T11:13:02.293Z,6.80
2022-08-31T11:14:02.138Z,6.80
2022-08-31T11:15:02.180Z,6.80
2022-08-31T11:16:02.243Z,6.80
2022-08-31T11:17:02.334Z,7.20
2022-08-31T11:18:02.531Z,7.20
2022-08-31T11:19:05.997Z,7.20
2022-08-31T11:20:02.360Z,7.20
2022-08-31T11:21:02.460Z,7.20
2022-08-31T11:22:02.310Z,7.60
2022-08-31T11:23:02.945Z,7.60
2022-08-31T11:24:02.596Z,7.60
2022-08-31T11:25:02.625Z,7.60
2022-08-31T11:26:02.792Z,7.60
2022-08-31T11:27:02.981Z,6.50
2022-08-31T11:28:02.778Z,6.50
2022-08-31T11:29:02.756Z,6.50
2022-08-31T11:30:02.592Z,6.50
2022-08-31T11:31:02.969Z,6.50
2022-08-31T11:32:02.981Z,7.10
2022-08-31T11:33:02.523Z,7.10
2022-08-31T11:34:17.783Z,7.10
2022-08-31T11:35:02.804Z,7.10
2022-08-31T11:36:06.742Z,7.10
2022-08-31T11:37:02.897Z,7.40
2022-08-31T11:38:03.014Z,7.40
2022-08-31T11:39:02.976Z,7.40
2022-08-31T11:40:03.083Z,7.40
2022-08-31T11:41:03.031Z,7.40
2022-08-31T11:42:02.847Z,6.90
2022-08-31T11:43:02.552Z,6.90
2022-08-31T11:44:02.197Z,6.90
2022-08-31T11:45:02.766Z,6.90
2022-08-31T11:46:02.567Z,6.90
2022-08-31T11:47:02.229Z,6.40
2022-08-31T11:48:02.853Z,6.40
2022-08-31T11:49:02.885Z,6.40
2022-08-31T11:50:02.814Z,6.40
2022-08-31T11:51:02.877Z,6.40
2022-08-31T11:52:02.915Z,8.30
2022-08-31T11:53:02.397Z,8.30
2022-08-31T11:54:02.414Z,8.30
2022-08-31T11:55:02.481Z,8.30
2022-08-31T11:56:02.558Z,8.30
2022-08-31T11:57:02.583Z,6.10
2022-08-31T11:58:03.199Z,6.10
2022-08-31T11:59:03.253Z,6.10
2022-08-31T12:00:03.136Z,6.10
2022-08-31T12:01:03.257Z,6.10
2022-08-31T12:02:03.075Z,8.50
2022-08-31T12:03:02.786Z,8.50
2022-08-31T12:04:02.840Z,8.50
2022-08-31T12:05:03.248Z,8.50
2022-08-31T12:06:02.318Z,8.50
2022-08-31T12:07:02.728Z,6.80
2022-08-31T12:08:03.467Z,6.80
2022-08-31T12:09:03.206Z,6.80
2022-08-31T12:10:03.300Z,6.80
2022-08-31T12:11:02.921Z,6.80
2022-08-31T12:12:03.524Z,7.10
2022-08-31T12:13:02.496Z,7.10
2022-08-31T12:14:02.524Z,7.10
2022-08-31T12:15:03.125Z,7.10
2022-08-31T12:16:03.049Z,7.10
2022-08-31T12:17:02.780Z,8.30
2022-08-31T12:18:03.053Z,8.30
2022-08-31T12:19:03.076Z,8.30
2022-08-31T12:20:03.040Z,8.30
2022-08-31T12:21:02.965Z,8.30
2022-08-31T12:22:03.017Z,9.70
2022-08-31T12:23:02.683Z,9.70
2022-08-31T12:24:02.632Z,9.70
2022-08-31T12:25:02.661Z,9.70
2022-08-31T12:26:02.250Z,9.70
2022-08-31T12:27:02.489Z,8.20
2022-08-31T12:28:02.983Z,8.20
2022-08-31T12:29:03.000Z,8.20
2022-08-31T12:30:02.858Z,8.20
2022-08-31T12:31:03.126Z,8.20
2022-08-31T12:32:04.633Z,7.10
2022-08-31T12:33:02.932Z,7.10
2022-08-31T12:34:03.592Z,7.10
2022-08-31T12:35:03.217Z,7.10
2022-08-31T12:36:03.167Z,7.10
2022-08-31T12:37:03.488Z,7.60
2022-08-31T12:38:02.745Z,7.60
2022-08-31T12:39:02.705Z,7.60
2022-08-31T12:40:03.218Z,7.60
2022-08-31T12:41:02.969Z,7.60
2022-08-31T12:42:02.848Z,8.30
2022-08-31T12:43:03.446Z,8.30
2022-08-31T12:44:03.868Z,8.30
2022-08-31T12:45:02.985Z,8.30
2022-08-31T12:46:02.930Z,8.30
2022-08-31T12:47:02.922Z,7.20
2022-08-31T12:48:02.944Z,7.20
2022-08-31T12:49:03.228Z,7.20
2022-08-31T12:50:03.346Z,7.20
2022-08-31T12:51:02.910Z,7.20
2022-08-31T12:52:03.029Z,6.90
2022-08-31T12:53:03.127Z,6.90
2022-08-31T12:54:03.450Z,6.90
2022-08-31T12:55:06.951Z,6.90
2022-08-31T12:56:03.342Z,6.90
2022-08-31T12:57:03.397Z,5.90
2022-08-31T12:58:02.461Z,5.90
2022-08-31T12:59:02.488Z,5.90
2022-08-31T13:00:02.551Z,5.90
2022-08-31T13:01:06.073Z,5.90
2022-08-31T13:02:02.698Z,9.00
2022-08-31T13:03:03.406Z,9.00
2022-08-31T13:04:02.811Z,9.00
2022-08-31T13:05:02.899Z,9.00
2022-08-31T13:06:02.997Z,9.00
2022-08-31T13:07:02.969Z,7.80
2022-08-31T13:08:03.029Z,7.80
2022-08-31T13:09:03.013Z,7.80